Time;durP1;ratioP1;P1;durP2;ratioP2;P2;SDS_P1;SDS_P2;PMS_P1;PMS_P2;Temp;Humidity;BMP_temperature;BMP_pressure;BME280_temperature;BME280_humidity;BME280_pressure;Samples;Min_cycle;Max_cycle;Signal;HPM_P1;HPM_P2
2022/08/20 00:02:25;;;;;;;15.73;6.70;;;-31.10;99.90;;;;;;5078491;28;20453;-67
2022/08/20 00:04:51;;;;;;;5.63;5.13;;;-32.80;99.90;;;;;;5077806;28;20178;-67
2022/08/20 00:07:17;;;;;;;7.40;6.40;;;-32.90;99.90;;;;;;5076921;28;20180;-69
2022/08/20 00:09:43;;;;;;;5.77;5.13;;;-31.90;99.90;;;;;;5078179;28;20568;-67
2022/08/20 00:12:11;;;;;;;7.63;5.63;;;-37.20;99.90;;;;;;5078535;28;20206;-67
2022/08/20 00:14:38;;;;;;;7.67;6.37;;;-34.80;99.90;;;;;;5078604;28;20186;-67
2022/08/20 00:17:04;;;;;;;6.57;5.00;;;-37.20;99.90;;;;;;5078609;28;20495;-66
2022/08/20 00:19:30;;;;;;;7.40;4.60;;;-40.00;99.90;;;;;;5078400;28;20555;-68
2022/08/20 00:21:56;;;;;;;7.03;6.23;;;-37.90;99.90;;;;;;5078560;28;20282;-67
2022/08/20 00:24:23;;;;;;;6.93;6.20;;;-35.80;99.90;;;;;;5078389;28;20186;-70
2022/08/20 00:26:48;;;;;;;5.03;4.63;;;-34.40;99.90;;;;;;5077873;28;20240;-71
2022/08/20 00:29:15;;;;;;;7.90;6.63;;;-37.30;99.90;;;;;;5081078;28;20216;-67
2022/08/20 00:31:41;;;;;;;12.20;6.47;;;-32.60;99.90;;;;;;5077151;28;20185;-69
2022/08/20 00:34:07;;;;;;;10.03;5.20;;;-35.60;99.90;;;;;;5077931;28;20172;-73
2022/08/20 00:36:32;;;;;;;7.57;5.77;;;-35.60;99.90;;;;;;5087053;28;20179;-69
2022/08/20 00:38:58;;;;;;;5.77;5.20;;;-40.00;99.90;;;;;;5078181;28;20657;-68
2022/08/20 00:41:25;;;;;;;7.97;4.50;;;-40.00;99.90;;;;;;5078096;28;20203;-69
2022/08/20 00:44:05;;;;;;;12.57;6.23;;;-38.80;99.90;;;;;;5077373;28;20191;-69
2022/08/20 00:46:33;;;;;;;6.60;5.07;;;-35.30;99.90;;;;;;5076997;28;20175;-68
2022/08/20 00:49:01;;;;;;;9.97;5.37;;;-40.00;99.90;;;;;;5077238;28;20215;-68
2022/08/20 00:51:37;;;;;;;7.50;4.87;;;-39.70;99.90;;;;;;5077322;28;20179;-70
2022/08/20 00:54:16;;;;;;;14.43;6.47;;;-40.00;99.90;;;;;;5077254;28;20278;-67
2022/08/20 00:56:46;;;;;;;8.60;6.03;;;-40.00;99.90;;;;;;5082172;28;20178;-70
2022/08/20 00:59:16;;;;;;;9.73;4.97;;;-40.00;99.90;;;;;;5083210;28;20198;-71
2022/08/20 01:01:43;;;;;;;6.60;5.63;;;-38.80;99.90;;;;;;5077261;28;20201;-70
2022/08/20 01:04:10;;;;;;;10.27;5.97;;;-39.80;99.90;;;;;;5076502;28;20225;-70
2022/08/20 01:06:40;;;;;;;8.67;5.37;;;-33.70;99.90;;;;;;5077097;28;20481;-68
2022/08/20 01:09:07;;;;;;;8.67;6.00;;;-40.00;99.90;;;;;;5077726;28;20182;-67
2022/08/20 01:11:34;;;;;;;7.70;4.87;;;-40.00;99.90;;;;;;5078022;28;20281;-68
2022/08/20 01:14:18;;;;;;;9.37;5.90;;;-40.00;99.90;;;;;;5076056;28;20183;-67
2022/08/20 01:16:47;;;;;;;11.87;4.97;;;-39.60;99.90;;;;;;5076961;28;20185;-69
2022/08/20 01:19:15;;;;;;;9.53;4.73;;;-35.30;99.90;;;;;;5076293;28;20478;-70
2022/08/20 01:21:42;;;;;;;19.47;6.67;;;-30.90;99.90;;;;;;5074554;28;20464;-70
2022/08/20 01:24:31;;;;;;;13.33;5.43;;;-32.20;99.90;;;;;;5078423;28;20182;-70
2022/08/20 01:27:00;;;;;;;17.33;6.20;;;-33.10;99.90;;;;;;5076460;28;20175;-69
2022/08/20 01:29:33;;;;;;;13.87;5.23;;;-40.00;99.90;;;;;;5077274;28;20296;-69
2022/08/20 01:32:00;;;;;;;9.03;5.00;;;-40.00;99.90;;;;;;5076900;28;20191;-69
2022/08/20 01:34:26;;;;;;;7.70;4.97;;;-40.00;99.90;;;;;;5076159;28;20258;-67
2022/08/20 01:36:54;;;;;;;12.87;5.17;;;-40.00;99.90;;;;;;5076083;28;20199;-69
2022/08/20 01:39:26;;;;;;;8.67;5.13;;;-37.60;99.90;;;;;;5080576;28;20176;-68
2022/08/20 01:42:18;;;;;;;12.23;5.37;;;-39.00;99.90;;;;;;5076356;28;20171;-68
2022/08/20 01:44:45;;;;;;;8.27;4.77;;;-38.50;99.90;;;;;;5077088;28;20171;-68
2022/08/20 01:47:19;;;;;;;8.47;4.57;;;-39.70;99.90;;;;;;5076857;28;20179;-71
2022/08/20 01:49:50;;;;;;;11.47;4.73;;;-39.00;99.90;;;;;;5076878;28;20203;-68
2022/08/20 01:52:59;;;;;;;12.17;5.37;;;-38.50;99.90;;;;;;5082217;28;20179;-68
2022/08/20 01:55:26;;;;;;;10.90;4.80;;;-40.00;99.90;;;;;;5076404;28;20598;-67
2022/08/20 01:57:53;;;;;;;13.53;4.97;;;-39.80;99.90;;;;;;5076181;28;20175;-67
2022/08/20 02:00:20;;;;;;;16.03;5.47;;;-40.00;99.90;;;;;;5075966;28;20203;-71
2022/08/20 02:02:46;;;;;;;15.67;5.67;;;-40.00;99.90;;;;;;5076776;28;20179;-67
2022/08/20 02:05:11;;;;;;;6.87;4.13;;;-36.40;99.90;;;;;;5077217;28;20190;-66
2022/08/20 02:07:38;;;;;;;11.93;5.00;;;-37.50;99.90;;;;;;5076517;28;20187;-68
2022/08/20 02:10:06;;;;;;;11.70;5.30;;;-38.60;99.90;;;;;;5083359;28;20187;-69
2022/08/20 02:12:32;;;;;;;15.37;6.17;;;-38.90;99.90;;;;;;5076694;28;20181;-70
2022/08/20 02:14:58;;;;;;;11.60;4.80;;;-40.00;99.90;;;;;;5076556;28;20266;-68
2022/08/20 02:17:25;;;;;;;16.43;5.30;;;-40.00;99.90;;;;;;5076187;28;20172;-69
2022/08/20 02:19:59;;;;;;;15.77;5.17;;;-38.60;99.90;;;;;;5075354;28;20211;-68
2022/08/20 02:22:52;;;;;;;15.23;5.87;;;-38.20;99.90;;;;;;5090551;28;20170;-72
2022/08/20 02:25:21;;;;;;;10.20;5.47;;;-39.50;99.90;;;;;;5076250;28;20233;-68
2022/08/20 02:27:50;;;;;;;12.80;5.33;;;-36.20;99.90;;;;;;5076563;28;20524;-69
2022/08/20 02:30:26;;;;;;;19.03;6.67;;;-35.30;99.90;;;;;;5079442;28;20195;-68
2022/08/20 02:32:52;;;;;;;15.17;5.53;;;-37.30;99.90;;;;;;5079487;28;20186;-68
2022/08/20 02:35:18;;;;;;;20.40;5.87;;;-36.30;99.90;;;;;;5080339;28;20228;-67
2022/08/20 02:37:45;;;;;;;13.97;5.17;;;-39.00;99.90;;;;;;5080096;28;20210;-70
2022/08/20 02:40:15;;;;;;;16.27;6.00;;;-37.20;99.90;;;;;;5079167;28;20509;-67
2022/08/20 02:42:42;;;;;;;9.93;5.47;;;-36.80;99.90;;;;;;5080481;28;20579;-69
2022/08/20 02:45:16;;;;;;;12.47;5.60;;;-36.70;99.90;;;;;;5080074;28;20179;-68
2022/08/20 02:47:44;;;;;;;14.20;6.07;;;-36.60;99.90;;;;;;5080289;28;20189;-67
2022/08/20 02:50:16;;;;;;;22.23;8.33;;;-36.40;99.90;;;;;;5079472;28;20218;-67
2022/08/20 02:52:42;;;;;;;20.63;6.13;;;-35.50;99.90;;;;;;5078734;28;20216;-68
2022/08/20 02:55:09;;;;;;;12.90;6.53;;;-38.50;99.90;;;;;;5079473;28;20187;-68
2022/08/20 02:57:36;;;;;;;19.40;7.60;;;-38.70;99.90;;;;;;5079759;28;20194;-67
2022/08/20 03:00:15;;;;;;;15.33;6.40;;;-40.00;99.90;;;;;;5080245;28;20253;-67
2022/08/20 03:02:41;;;;;;;15.53;6.23;;;-40.00;99.90;;;;;;5080015;28;20541;-68
2022/08/20 03:05:08;;;;;;;16.50;6.53;;;-40.00;99.90;;;;;;5079774;28;20229;-67
2022/08/20 03:07:49;;;;;;;13.80;6.77;;;-40.00;99.90;;;;;;5079135;28;20215;-68
2022/08/20 03:10:15;;;;;;;13.70;5.93;;;-40.00;99.90;;;;;;5079474;28;20187;-68
2022/08/20 03:12:41;;;;;;;23.13;8.30;;;-40.00;99.90;;;;;;5079671;28;20190;-68
2022/08/20 03:15:09;;;;;;;11.50;6.03;;;-39.90;99.90;;;;;;5079113;28;20187;-68
2022/08/20 03:17:35;;;;;;;12.53;6.13;;;-40.00;99.90;;;;;;5079708;28;20214;-68
2022/08/20 03:20:03;;;;;;;15.93;7.43;;;-40.00;99.90;;;;;;5078590;28;20340;-68
2022/08/20 03:22:29;;;;;;;13.20;7.43;;;-39.30;99.90;;;;;;5079699;28;20770;-68
2022/08/20 03:24:55;;;;;;;13.50;5.93;;;-39.20;99.90;;;;;;5078499;28;20183;-67
2022/08/20 03:27:21;;;;;;;14.90;7.27;;;-40.00;99.90;;;;;;5078316;28;20203;-68
2022/08/20 03:29:47;;;;;;;17.53;7.23;;;-40.00;99.90;;;;;;5078164;28;20210;-68
2022/08/20 03:32:13;;;;;;;27.03;7.93;;;-40.00;99.90;;;;;;5079413;28;20198;-69
2022/08/20 03:34:38;;;;;;;23.27;6.93;;;-40.00;99.90;;;;;;5078296;28;20187;-68
2022/08/20 03:37:04;;;;;;;10.63;5.27;;;-40.00;99.90;;;;;;5085083;28;20191;-68
2022/08/20 03:39:30;;;;;;;15.00;6.30;;;-40.00;99.90;;;;;;5079130;28;20587;-68
2022/08/20 03:41:56;;;;;;;12.43;7.53;;;-38.70;99.90;;;;;;5078371;28;20571;-69
2022/08/20 03:44:22;;;;;;;17.47;7.50;;;-40.00;99.90;;;;;;5078785;28;20227;-69
2022/08/20 03:46:48;;;;;;;15.93;7.10;;;-40.00;99.90;;;;;;5078821;28;20183;-69
2022/08/20 03:49:13;;;;;;;16.07;7.23;;;-40.00;99.90;;;;;;5078748;28;20207;-69
2022/08/20 03:51:40;;;;;;;13.20;7.87;;;-40.00;99.90;;;;;;5079081;28;20236;-71
2022/08/20 03:54:06;;;;;;;19.93;7.67;;;-40.00;99.90;;;;;;5078470;28;20610;-67
2022/08/20 03:56:32;;;;;;;18.40;6.60;;;-40.00;99.90;;;;;;5078726;28;20189;-69
2022/08/20 03:58:58;;;;;;;20.27;8.20;;;-40.00;99.90;;;;;;5079130;28;20199;-67
2022/08/20 04:01:23;;;;;;;18.73;8.40;;;-40.00;99.90;;;;;;5078887;28;20218;-69
2022/08/20 04:03:49;;;;;;;13.17;7.03;;;-40.00;99.90;;;;;;5078860;28;20176;-67
2022/08/20 04:06:17;;;;;;;19.77;7.30;;;-35.50;99.90;;;;;;5079188;28;20191;-70
2022/08/20 04:08:43;;;;;;;19.97;7.50;;;-39.40;99.90;;;;;;5077759;28;20179;-69
2022/08/20 04:11:09;;;;;;;15.83;7.23;;;-40.00;99.90;;;;;;5077283;28;20198;-67
2022/08/20 04:13:34;;;;;;;13.13;7.13;;;-40.00;99.90;;;;;;5077571;28;20587;-68
2022/08/20 04:16:07;;;;;;;17.07;7.40;;;-39.50;99.90;;;;;;5082343;28;20578;-67
2022/08/20 04:18:35;;;;;;;18.67;6.27;;;-40.00;99.90;;;;;;5077545;28;20189;-66
2022/08/20 04:21:04;;;;;;;16.17;7.20;;;-40.00;99.90;;;;;;5078395;28;20214;-68
2022/08/20 04:23:30;;;;;;;12.60;6.53;;;-40.00;99.90;;;;;;5078377;28;20183;-67
2022/08/20 04:25:56;;;;;;;22.60;7.97;;;-40.00;99.90;;;;;;5078219;28;20187;-66
2022/08/20 04:28:23;;;;;;;21.10;7.47;;;-39.30;99.90;;;;;;5077235;28;20226;-68
2022/08/20 04:30:51;;;;;;;20.10;6.60;;;-40.00;99.90;;;;;;5077780;28;20229;-69
2022/08/20 04:33:17;;;;;;;29.73;10.27;;;-40.00;99.90;;;;;;5077629;28;20182;-67
2022/08/20 04:35:44;;;;;;;21.17;7.93;;;-40.00;99.90;;;;;;5078266;28;20179;-68
2022/08/20 04:38:15;;;;;;;17.20;7.50;;;-40.00;99.90;;;;;;5078490;28;20179;-70
2022/08/20 04:40:53;;;;;;;15.60;8.40;;;-40.00;99.90;;;;;;5080875;28;20562;-67
2022/08/20 04:43:32;;;;;;;30.93;9.37;;;-40.00;99.90;;;;;;5077403;28;20183;-70
2022/08/20 04:46:01;;;;;;;24.03;8.80;;;-37.50;99.90;;;;;;5082163;28;20221;-69
2022/08/20 04:48:28;;;;;;;14.07;7.87;;;-40.00;99.90;;;;;;5079849;28;20207;-69
2022/08/20 04:50:56;;;;;;;18.90;7.07;;;-40.00;99.90;;;;;;5077900;28;20230;-69
2022/08/20 04:53:23;;;;;;;19.70;8.83;;;-39.50;99.90;;;;;;5076551;28;20187;-69
2022/08/20 04:55:51;;;;;;;29.13;9.57;;;-37.20;99.90;;;;;;5077301;28;20187;-67
2022/08/20 04:58:18;;;;;;;17.50;8.03;;;-40.00;99.90;;;;;;5077750;28;20463;-67
2022/08/20 05:00:49;;;;;;;19.30;7.40;;;-40.00;99.90;;;;;;5076738;28;20217;-67
2022/08/20 05:03:16;;;;;;;26.23;8.87;;;-39.90;99.90;;;;;;5077140;28;20501;-69
2022/08/20 05:05:43;;;;;;;20.30;8.17;;;-39.40;99.90;;;;;;5077670;28;20219;-68
2022/08/20 05:08:11;;;;;;;13.87;7.00;;;-39.10;99.90;;;;;;5077200;28;20220;-68
2022/08/20 05:10:37;;;;;;;15.63;7.30;;;-39.50;99.90;;;;;;5077116;28;20186;-68
2022/08/20 05:13:05;;;;;;;23.33;9.40;;;-40.00;99.90;;;;;;5076229;28;20328;-68
2022/08/20 05:15:30;;;;;;;24.37;9.40;;;-40.00;99.90;;;;;;5078307;28;20279;-69
2022/08/20 05:18:06;;;;;;;14.73;8.60;;;-40.00;99.90;;;;;;5076311;28;20589;-67
2022/08/20 05:20:37;;;;;;;17.40;8.93;;;-40.00;99.90;;;;;;5076270;28;20209;-69
2022/08/20 05:23:03;;;;;;;16.37;7.77;;;-40.00;99.90;;;;;;5076409;28;20183;-67
2022/08/20 05:25:30;;;;;;;18.87;8.53;;;-40.00;99.90;;;;;;5076765;28;20187;-68
2022/08/20 05:28:04;;;;;;;14.77;8.20;;;-35.80;99.90;;;;;;5077860;28;20500;-69
2022/08/20 05:30:32;;;;;;;20.80;7.53;;;-37.40;99.90;;;;;;5080660;28;20856;-66
2022/08/20 05:33:02;;;;;;;18.73;9.47;;;-38.50;99.90;;;;;;5077103;28;20270;-68
2022/08/20 05:35:29;;;;;;;22.97;8.87;;;-37.40;99.90;;;;;;5077346;28;20183;-69
2022/08/20 05:37:56;;;;;;;15.23;7.20;;;-38.50;99.90;;;;;;5076366;28;20214;-69
2022/08/20 05:40:23;;;;;;;18.10;8.93;;;-40.00;99.90;;;;;;5079634;28;20508;-68
2022/08/20 05:42:50;;;;;;;16.23;10.73;;;-39.80;99.90;;;;;;5076538;28;20185;-70
2022/08/20 05:45:17;;;;;;;18.67;8.13;;;-40.00;99.90;;;;;;5077234;28;20209;-70
2022/08/20 05:47:43;;;;;;;17.00;7.57;;;-39.30;99.90;;;;;;5077595;28;20458;-73
2022/08/20 05:50:14;;;;;;;17.63;8.90;;;-37.80;99.90;;;;;;5076900;28;20237;-68
2022/08/20 05:52:41;;;;;;;22.47;8.37;;;-39.70;99.90;;;;;;5076581;28;20189;-72
2022/08/20 05:55:09;;;;;;;23.40;9.10;;;-39.00;99.90;;;;;;5076951;28;20244;-68
2022/08/20 05:57:35;;;;;;;25.73;9.97;;;-37.20;99.90;;;;;;5074020;28;20194;-72
2022/08/20 06:00:05;;;;;;;21.13;8.33;;;-38.80;99.90;;;;;;5075933;28;20219;-70
2022/08/20 06:05:15;;;;;;;17.83;9.77;;;-38.30;99.90;;;;;;5082034;28;20597;-73
2022/08/20 06:07:41;;;;;;;19.63;7.97;;;-37.50;99.90;;;;;;5087161;28;20186;-72
2022/08/20 06:10:09;;;;;;;12.87;7.57;;;-38.30;99.90;;;;;;5083574;28;20222;-73
2022/08/20 06:12:34;;;;;;;18.60;9.20;;;-38.60;99.90;;;;;;5083478;28;20171;-69
2022/08/20 06:15:00;;;;;;;17.87;8.27;;;-38.90;99.90;;;;;;5082713;28;20213;-67
2022/08/20 06:17:28;;;;;;;24.93;10.10;;;-40.00;99.90;;;;;;5082820;28;20190;-72
2022/08/20 06:19:53;;;;;;;15.10;10.30;;;-38.10;99.90;;;;;;5086970;28;20707;-73
2022/08/20 06:22:19;;;;;;;19.63;9.53;;;-38.60;99.90;;;;;;5082110;28;20187;-72
2022/08/20 06:24:45;;;;;;;20.17;9.43;;;-39.40;99.90;;;;;;5082721;28;20191;-74
2022/08/20 06:27:18;;;;;;;16.93;7.60;;;-37.40;99.90;;;;;;5081121;28;20174;-70
2022/08/20 06:29:43;;;;;;;14.60;7.37;;;-35.80;99.90;;;;;;5083150;28;20222;-67
2022/08/20 06:32:10;;;;;;;19.07;8.47;;;-34.50;99.90;;;;;;5083431;28;20236;-72
2022/08/20 06:34:35;;;;;;;21.70;8.30;;;-35.60;99.90;;;;;;5082264;28;20179;-67
2022/08/20 06:37:01;;;;;;;16.70;8.93;;;-35.10;99.90;;;;;;5082529;28;20270;-68
2022/08/20 06:39:29;;;;;;;21.63;9.67;;;-35.30;99.90;;;;;;5082592;28;20236;-69
2022/08/20 06:41:57;;;;;;;13.83;8.43;;;-37.60;99.90;;;;;;5083254;28;20195;-69
2022/08/20 06:44:23;;;;;;;20.30;8.87;;;-38.20;99.90;;;;;;5083599;28;20266;-73
2022/08/20 06:46:49;;;;;;;13.73;8.83;;;-37.00;99.90;;;;;;5083081;28;20219;-74
2022/08/20 06:49:15;;;;;;;19.10;9.77;;;-36.30;99.90;;;;;;5081676;28;20286;-69
2022/08/20 06:51:40;;;;;;;17.20;8.23;;;-39.00;99.90;;;;;;5083332;28;20187;-73
2022/08/20 06:54:07;;;;;;;19.53;9.60;;;-40.00;99.90;;;;;;5088493;28;20185;-74
2022/08/20 06:56:33;;;;;;;14.53;8.37;;;-40.00;99.90;;;;;;5082046;28;20623;-73
2022/08/20 06:58:59;;;;;;;19.43;9.67;;;-39.80;99.90;;;;;;5085321;28;20624;-72
2022/08/20 07:01:25;;;;;;;13.33;8.00;;;-38.40;99.90;;;;;;5083393;28;20214;-68
2022/08/20 07:03:51;;;;;;;24.90;10.23;;;-39.40;99.90;;;;;;5081542;28;20187;-72
2022/08/20 07:06:17;;;;;;;20.40;9.93;;;-38.50;99.90;;;;;;5081784;28;20206;-69
2022/08/20 07:08:43;;;;;;;20.07;8.40;;;-39.10;99.90;;;;;;5081962;28;20563;-69
2022/08/20 07:11:11;;;;;;;21.53;8.63;;;-39.40;99.90;;;;;;5082386;28;20175;-68
2022/08/20 07:13:36;;;;;;;22.37;8.30;;;-38.60;99.90;;;;;;5082705;28;20183;-69
2022/08/20 07:16:05;;;;;;;19.20;8.67;;;-36.00;99.90;;;;;;5079469;28;20183;-69
2022/08/20 07:18:31;;;;;;;17.10;8.93;;;-33.30;99.90;;;;;;5079490;28;20184;-71
2022/08/20 07:20:57;;;;;;;21.80;10.63;;;-31.60;99.90;;;;;;5082541;28;20236;-66
2022/08/20 07:23:24;;;;;;;15.50;8.00;;;-34.70;99.90;;;;;;5081039;28;20174;-69
2022/08/20 07:25:50;;;;;;;16.67;9.03;;;-34.00;99.90;;;;;;5079061;28;20266;-68
2022/08/20 07:28:21;;;;;;;15.70;8.13;;;-34.40;99.90;;;;;;5090273;28;20266;-66
2022/08/20 07:33:31;;;;;;;12.50;7.93;;;-36.40;99.90;;;;;;5091970;28;20188;-69
2022/08/20 07:35:59;;;;;;;19.80;9.13;;;-35.30;99.90;;;;;;5102219;28;20515;-67
2022/08/20 07:38:28;;;;;;;17.87;8.93;;;-35.30;99.90;;;;;;5085380;28;20197;-67
2022/08/20 07:41:00;;;;;;;20.30;8.37;;;-35.40;99.90;;;;;;5078258;28;20691;-71
2022/08/20 07:43:27;;;;;;;18.13;9.00;;;-38.10;99.90;;;;;;5078704;28;20521;-66
2022/08/20 07:45:55;;;;;;;11.60;7.93;;;-34.30;99.90;;;;;;5078170;28;20187;-66
2022/08/20 07:48:24;;;;;;;24.43;8.60;;;-34.50;99.90;;;;;;5078587;28;20618;-69
2022/08/20 07:50:51;;;;;;;17.53;9.23;;;-32.80;99.90;;;;;;5078202;28;20474;-71
2022/08/20 07:53:17;;;;;;;13.07;7.93;;;-33.90;99.90;;;;;;5078881;28;20195;-71
2022/08/20 07:55:43;;;;;;;22.10;10.67;;;-37.20;99.90;;;;;;5077857;28;20190;-68
2022/08/20 07:58:12;;;;;;;16.83;8.20;;;-33.90;99.90;;;;;;5077788;28;20505;-69
2022/08/20 08:00:39;;;;;;;13.23;7.83;;;-30.80;99.90;;;;;;5078929;28;20516;-68
2022/08/20 08:03:05;;;;;;;17.33;8.60;;;-31.80;99.90;;;;;;5078344;28;20477;-70
2022/08/20 08:05:34;;;;;;;16.53;6.90;;;-31.30;99.90;;;;;;5078883;28;20187;-66
2022/08/20 08:08:00;;;;;;;15.37;7.00;;;-30.00;99.90;;;;;;5078629;28;20556;-69
2022/08/20 08:10:26;;;;;;;10.50;7.53;;;-29.30;99.90;;;;;;5078479;28;20262;-68
2022/08/20 08:12:56;;;;;;;13.83;8.47;;;-30.80;99.90;;;;;;5077472;28;20305;-67
2022/08/20 08:15:27;;;;;;;12.03;6.70;;;-35.50;99.90;;;;;;5083974;28;20179;-69
2022/08/20 08:17:55;;;;;;;15.83;7.83;;;-30.70;99.90;;;;;;5078948;28;20273;-69
2022/08/20 08:20:22;;;;;;;14.27;7.90;;;-28.90;99.90;;;;;;5077819;28;20290;-66
2022/08/20 08:22:49;;;;;;;21.97;8.90;;;-29.30;99.90;;;;;;5082848;28;20292;-65
2022/08/20 08:25:15;;;;;;;8.70;6.40;;;-28.00;99.90;;;;;;5078489;28;20258;-65
2022/08/20 08:27:42;;;;;;;14.07;7.70;;;-30.00;99.90;;;;;;5077199;28;20180;-65
2022/08/20 08:30:09;;;;;;;12.00;7.20;;;-31.30;99.90;;;;;;5077272;28;20187;-68
2022/08/20 08:33:26;;;;;;;18.13;7.67;;;-30.30;99.90;;;;;;5077409;28;20181;-68
2022/08/20 08:35:25;;;;;;;14.80;7.00;;;-28.30;99.90;;;;;;5078051;28;20576;-67
2022/08/20 08:37:51;;;;;;;12.97;7.60;;;-31.00;99.90;;;;;;5078666;28;20233;-65
2022/08/20 08:40:17;;;;;;;12.97;8.07;;;-28.60;99.90;;;;;;5077550;28;20207;-66
2022/08/20 08:42:47;;;;;;;12.47;6.30;;;-28.90;99.90;;;;;;5077200;28;20199;-66
2022/08/20 08:45:17;;;;;;;16.27;6.60;;;-26.90;99.90;;;;;;5077412;28;20179;-66
2022/08/20 08:47:44;;;;;;;11.47;6.30;;;-28.40;99.90;;;;;;5084845;28;20257;-66
2022/08/20 08:50:27;;;;;;;10.97;6.30;;;-29.70;99.90;;;;;;5080945;28;20202;-66
2022/08/20 08:52:59;;;;;;;15.60;5.53;;;-26.60;99.90;;;;;;5077267;28;20187;-66
2022/08/20 08:55:26;;;;;;;13.77;6.57;;;-30.60;99.90;;;;;;5077503;28;20187;-66
2022/08/20 08:57:55;;;;;;;12.10;5.53;;;-29.20;99.90;;;;;;5078140;28;20191;-66
2022/08/20 09:00:22;;;;;;;10.37;5.10;;;-30.10;99.90;;;;;;5077352;28;20214;-66
2022/08/20 09:03:04;;;;;;;12.53;5.53;;;-27.30;99.90;;;;;;5077572;28;21380;-67
2022/08/20 09:05:39;;;;;;;12.50;5.17;;;-29.00;99.90;;;;;;5077962;28;20174;-65
2022/08/20 09:08:10;;;;;;;6.63;4.40;;;-29.20;99.90;;;;;;5076282;28;20526;-67
2022/08/20 09:10:37;;;;;;;10.50;6.77;;;-30.20;99.90;;;;;;5077249;28;20197;-67
2022/08/20 09:13:05;;;;;;;12.10;5.27;;;-26.30;99.90;;;;;;5076292;28;20191;-66
2022/08/20 09:15:31;;;;;;;10.50;4.00;;;-25.10;99.90;;;;;;5076345;28;20223;-65
2022/08/20 09:17:57;;;;;;;11.50;4.60;;;-25.70;99.90;;;;;;5086316;28;20599;-65
2022/08/20 09:20:23;;;;;;;9.83;5.33;;;-22.40;99.90;;;;;;5085808;28;20211;-66
2022/08/20 09:22:49;;;;;;;10.67;3.93;;;-24.00;99.90;;;;;;5077031;28;20214;-66
2022/08/20 09:25:15;;;;;;;8.20;3.70;;;-24.40;99.90;;;;;;5076813;28;20221;-66
2022/08/20 09:27:41;;;;;;;6.43;3.10;;;-28.70;99.90;;;;;;5075814;28;20231;-65
2022/08/20 09:30:07;;;;;;;13.70;5.17;;;-26.40;99.90;;;;;;5076656;28;20274;-65
2022/08/20 09:32:33;;;;;;;10.53;2.83;;;-27.40;99.90;;;;;;5076610;28;20175;-65
2022/08/20 09:34:59;;;;;;;10.40;3.63;;;-19.80;99.90;;;;;;5076704;28;20489;-65
2022/08/20 09:37:28;;;;;;;6.83;2.33;;;-17.60;99.90;;;;;;5076761;28;20180;-66
2022/08/20 09:39:54;;;;;;;5.07;3.17;;;-19.90;99.90;;;;;;5075064;28;20207;-66
2022/08/20 09:42:24;;;;;;;8.50;2.83;;;-19.50;99.90;;;;;;5088863;28;20223;-64
2022/08/20 09:44:50;;;;;;;9.57;2.57;;;-18.30;99.90;;;;;;5090313;28;20262;-65
2022/08/20 09:47:16;;;;;;;5.53;2.80;;;-28.40;99.50;;;;;;5095838;28;20258;-67
2022/08/20 09:49:43;;;;;;;6.53;3.07;;;-26.00;99.90;;;;;;5100158;28;20197;-65
2022/08/20 09:52:21;;;;;;;7.87;2.53;;;-29.60;99.10;;;;;;5091863;28;20179;-69
2022/08/20 09:54:46;;;;;;;4.47;2.30;;;-21.70;99.10;;;;;;5088360;28;20311;-65
2022/08/20 09:57:14;;;;;;;7.47;3.30;;;-21.10;99.90;;;;;;5090363;28;20265;-65
2022/08/20 09:59:40;;;;;;;10.00;2.63;;;-26.60;97.70;;;;;;5088283;28;20191;-64
2022/08/20 10:02:06;;;;;;;12.50;2.53;;;-24.50;97.50;;;;;;5089185;28;20193;-65
2022/08/20 10:04:31;;;;;;;7.20;2.80;;;-19.60;99.80;;;;;;5081146;28;20490;-67
2022/08/20 10:06:57;;;;;;;5.87;2.13;;;-18.40;99.80;;;;;;5075691;28;20194;-65
2022/08/20 10:09:23;;;;;;;6.07;2.10;;;-24.20;98.50;;;;;;5076021;28;20192;-66
2022/08/20 10:11:49;;;;;;;6.07;2.67;;;-23.10;98.10;;;;;;5075773;28;20565;-64
2022/08/20 10:14:14;;;;;;;4.37;2.37;;;-26.40;95.50;;;;;;5076037;28;20187;-64
2022/08/20 10:16:40;;;;;;;8.70;3.03;;;-27.10;95.30;;;;;;5075487;28;20184;-63
2022/08/20 10:19:06;;;;;;;5.13;1.90;;;-30.00;91.50;;;;;;5076137;28;20183;-66
2022/08/20 10:21:32;;;;;;;4.47;2.10;;;-40.00;85.20;;;;;;5082910;28;20210;-69
2022/08/20 10:23:58;;;;;;;9.80;3.03;;;-40.00;84.30;;;;;;5075672;28;20183;-66
2022/08/20 10:26:25;;;;;;;10.33;2.00;;;-40.00;85.20;;;;;;5075974;28;20652;-65
2022/08/20 10:28:50;;;;;;;5.73;2.30;;;-40.00;86.20;;;;;;5077736;28;20262;-64
2022/08/20 10:31:16;;;;;;;5.10;2.00;;;-40.00;86.10;;;;;;5075057;28;20270;-64
2022/08/20 10:33:43;;;;;;;8.73;2.80;;;-40.00;86.10;;;;;;5074334;28;20261;-63
2022/08/20 10:36:15;;;;;;;4.13;2.27;;;-40.00;86.50;;;;;;5075196;28;20229;-64
2022/08/20 10:38:42;;;;;;;7.97;3.23;;;-40.00;84.70;;;;;;5075820;28;20240;-64
2022/08/20 10:41:08;;;;;;;4.70;2.90;;;-40.00;82.20;;;;;;5076057;28;20617;-62
2022/08/20 10:43:34;;;;;;;7.30;2.20;;;-40.00;80.10;;;;;;5074321;28;20199;-65
2022/08/20 10:46:00;;;;;;;6.37;2.10;;;-40.00;79.30;;;;;;5082002;28;20229;-64
2022/08/20 10:48:26;;;;;;;4.93;1.73;;;-40.00;80.10;;;;;;5075050;28;20237;-63
2022/08/20 10:50:52;;;;;;;12.53;2.87;;;-40.00;78.30;;;;;;5074856;28;20215;-68
2022/08/20 10:53:17;;;;;;;3.70;2.10;;;-40.00;79.20;;;;;;5079192;28;20210;-63
2022/08/20 10:55:44;;;;;;;6.30;3.33;;;-40.00;79.10;;;;;;5080221;28;20218;-64
2022/08/20 10:58:11;;;;;;;6.67;2.57;;;-40.00;77.30;;;;;;5079307;28;20248;-65
2022/08/20 11:00:38;;;;;;;8.67;2.20;;;-40.00;75.20;;;;;;5078664;28;20291;-64
2022/08/20 11:03:04;;;;;;;5.30;2.40;;;-40.00;77.70;;;;;;5078794;28;20173;-64
2022/08/20 11:05:30;;;;;;;6.07;2.27;;;-40.00;74.60;;;;;;5079130;28;20227;-64
2022/08/20 11:07:56;;;;;;;5.40;2.53;;;-40.00;73.60;;;;;;5078870;28;20183;-63
2022/08/20 11:10:24;;;;;;;5.10;2.60;;;-40.00;73.70;;;;;;5084670;28;20183;-65
2022/08/20 11:12:50;;;;;;;3.03;1.90;;;-40.00;73.30;;;;;;5078794;28;20309;-65
2022/08/20 11:15:16;;;;;;;4.30;1.90;;;-40.00;68.60;;;;;;5079143;28;20263;-66
2022/08/20 11:17:43;;;;;;;5.40;2.13;;;-40.00;68.10;;;;;;5079160;28;20182;-65
2022/08/20 11:20:12;;;;;;;6.00;2.17;;;-40.00;68.70;;;;;;5085590;28;20202;-65
2022/08/20 11:22:38;;;;;;;7.57;3.10;;;-40.00;70.10;;;;;;5092646;28;20171;-65
2022/08/20 11:25:05;;;;;;;7.33;3.40;;;-40.00;70.00;;;;;;5088046;28;20239;-65
2022/08/20 11:27:34;;;;;;;6.50;2.47;;;-40.00;67.60;;;;;;5087693;28;20642;-65
2022/08/20 11:30:00;;;;;;;6.07;2.17;;;-40.00;67.90;;;;;;5078379;28;20292;-65
2022/08/20 11:32:25;;;;;;;6.20;2.43;;;-40.00;66.30;;;;;;5078783;28;20180;-66
2022/08/20 11:34:52;;;;;;;4.27;2.23;;;-40.00;67.30;;;;;;5078881;28;20274;-67
2022/08/20 11:37:20;;;;;;;5.37;2.47;;;-40.00;63.50;;;;;;5080067;28;20189;-66
2022/08/20 11:39:46;;;;;;;6.13;3.50;;;-40.00;65.40;;;;;;5078786;28;20171;-65
2022/08/20 11:42:12;;;;;;;5.63;2.57;;;-40.00;62.40;;;;;;5079056;28;20179;-65
2022/08/20 11:44:38;;;;;;;5.17;2.30;;;-40.00;64.00;;;;;;5079617;28;20178;-65
2022/08/20 11:47:05;;;;;;;6.67;2.30;;;-40.00;64.40;;;;;;5078086;28;20254;-66
2022/08/20 11:49:33;;;;;;;5.57;2.03;;;-40.00;65.10;;;;;;5086588;28;20195;-65
2022/08/20 11:51:59;;;;;;;9.10;2.40;;;-40.00;64.00;;;;;;5092312;28;20250;-64
2022/08/20 11:54:27;;;;;;;8.10;3.63;;;-40.00;58.50;;;;;;5078106;28;20187;-65
2022/08/20 11:56:56;;;;;;;5.47;1.83;;;-40.00;58.60;;;;;;5085113;28;20218;-65
2022/08/20 11:59:26;;;;;;;5.70;2.47;;;-40.00;57.40;;;;;;5099709;28;20226;-65
2022/08/20 12:01:54;;;;;;;4.67;2.33;;;-40.00;53.90;;;;;;5098128;28;20210;-64
2022/08/20 12:04:21;;;;;;;4.30;1.90;;;-40.00;55.00;;;;;;5091741;28;20567;-66
2022/08/20 12:06:47;;;;;;;7.20;3.60;;;-40.00;54.80;;;;;;5087986;28;20580;-64
2022/08/20 12:09:13;;;;;;;6.87;2.43;;;-40.00;53.40;;;;;;5080525;28;20245;-70
2022/08/20 12:11:38;;;;;;;8.80;2.87;;;-40.00;52.30;;;;;;5081845;28;20195;-66
2022/08/20 12:14:04;;;;;;;3.27;1.47;;;-40.00;53.10;;;;;;5076970;28;20187;-64
2022/08/20 12:16:30;;;;;;;6.23;2.40;;;-40.00;52.30;;;;;;5077344;28;20270;-63
2022/08/20 12:18:56;;;;;;;4.07;2.43;;;-40.00;51.80;;;;;;5076857;28;20190;-65
2022/08/20 12:21:21;;;;;;;6.43;1.70;;;-40.00;50.80;;;;;;5081875;28;20210;-66
2022/08/20 12:23:47;;;;;;;6.00;2.70;;;-40.00;50.90;;;;;;5077519;28;20206;-67
2022/08/20 12:26:15;;;;;;;4.33;1.90;;;-40.00;50.70;;;;;;5077707;28;20185;-68
2022/08/20 12:28:41;;;;;;;6.37;2.17;;;-40.00;52.10;;;;;;5086904;28;20175;-63
2022/08/20 12:31:07;;;;;;;4.50;2.07;;;-40.00;53.00;;;;;;5084206;28;20215;-67
2022/08/20 12:33:32;;;;;;;7.80;2.57;;;-40.00;51.10;;;;;;5082535;28;20527;-66
2022/08/20 12:35:58;;;;;;;3.67;1.93;;;-40.00;52.10;;;;;;5077564;28;20183;-65
2022/08/20 12:38:24;;;;;;;3.60;2.17;;;-40.00;50.10;;;;;;5077769;28;20179;-65
2022/08/20 12:40:50;;;;;;;3.43;1.83;;;-40.00;48.30;;;;;;5083623;28;20214;-64